X  Sulje Metar Aviation säätiedot     EFPO Pori Airport
Lämpötila
15°C Lämpötila
15°C Kastepiste
100% Kosteus



Tuuli
1 M/S
3 MPH
5 KM/T
3 KTS



190°
Eteläinen
Nykyiset olosuhteet

Sumu Sumu
Paine 1012.92 (hPa) - 29.91 (inHg)
Näkyvyys 0 (maili) - 0 (km)
Lentokenttä
Lentokentän koodi EFPO

Sijainti: Pori Airport
Etäisyys: 40 (km)

Metar:
EFPO 150420Z AUTO 19003KT 140V230 0400 R30/0600 FG VV001 15/15 Q1013

Aika: 15-08-2020 07:20 EEST